createdAt,value
2018-09-17T00:02:27.955Z,17.90
2018-09-17T00:07:31.080Z,17.90
2018-09-17T00:12:34.159Z,17.90
2018-09-17T00:17:37.283Z,17.80
2018-09-17T00:22:40.383Z,17.80
2018-09-17T00:27:43.483Z,17.70
2018-09-17T00:32:46.599Z,17.70
2018-09-17T00:37:49.967Z,17.60
2018-09-17T00:42:53.090Z,17.60
2018-09-17T00:47:56.220Z,17.50
2018-09-17T00:52:59.326Z,17.40
2018-09-17T00:58:02.431Z,17.40
2018-09-17T01:03:05.544Z,17.40
2018-09-17T01:08:08.643Z,17.30
2018-09-17T01:13:11.707Z,17.20
2018-09-17T01:18:14.815Z,17.20
2018-09-17T01:23:17.947Z,17.10
2018-09-17T01:28:21.068Z,17.10
2018-09-17T01:33:24.167Z,17.00
2018-09-17T01:38:27.264Z,16.90
2018-09-17T01:43:30.364Z,16.90
2018-09-17T01:48:33.483Z,16.80
2018-09-17T01:53:36.601Z,16.80
2018-09-17T01:58:46.517Z,16.70
2018-09-17T02:03:49.626Z,16.60
2018-09-17T02:08:52.762Z,16.60
2018-09-17T02:13:55.871Z,16.50
2018-09-17T02:18:58.975Z,16.50
2018-09-17T02:24:02.066Z,16.50
2018-09-17T02:29:05.740Z,16.40
2018-09-17T02:34:08.860Z,16.40
2018-09-17T02:39:11.975Z,16.30
2018-09-17T02:44:15.076Z,16.30
2018-09-17T02:49:18.182Z,16.30
2018-09-17T02:54:21.299Z,16.20
2018-09-17T02:59:24.553Z,16.20
2018-09-17T03:04:27.960Z,16.10
2018-09-17T03:09:31.083Z,16.10
2018-09-17T03:14:34.203Z,16.00
2018-09-17T03:19:37.328Z,16.00
2018-09-17T03:24:40.435Z,15.90
2018-09-17T03:34:53.095Z,15.80
2018-09-17T03:39:57.795Z,15.80
2018-09-17T03:45:00.902Z,15.70
2018-09-17T03:50:04.051Z,15.70
2018-09-17T03:55:07.155Z,15.70
2018-09-17T04:00:10.247Z,15.60
2018-09-17T04:05:13.846Z,15.60
2018-09-17T04:10:16.971Z,15.50
2018-09-17T04:15:20.127Z,15.50
2018-09-17T04:20:23.314Z,15.50
2018-09-17T04:25:26.684Z,15.40
2018-09-17T04:30:29.774Z,15.40
2018-09-17T04:35:32.856Z,15.40
2018-09-17T04:40:35.955Z,15.30
2018-09-17T04:45:39.047Z,15.30
2018-09-17T04:50:42.142Z,15.30
2018-09-17T04:55:45.258Z,15.20
2018-09-17T05:00:48.631Z,15.20
2018-09-17T05:05:51.747Z,15.10
2018-09-17T05:10:54.932Z,15.10
2018-09-17T05:15:58.031Z,15.00
2018-09-17T05:21:01.138Z,15.00
2018-09-17T05:26:04.226Z,15.00
2018-09-17T05:31:07.323Z,15.00
2018-09-17T05:36:10.437Z,15.00
2018-09-17T05:41:13.559Z,15.00
2018-09-17T05:46:16.643Z,15.00
2018-09-17T05:51:19.754Z,15.10
2018-09-17T05:56:22.865Z,15.10
2018-09-17T06:01:25.966Z,15.10
2018-09-17T06:06:29.058Z,15.10
2018-09-17T06:11:32.152Z,15.10
2018-09-17T06:16:35.255Z,15.20
2018-09-17T06:21:38.385Z,15.20
2018-09-17T06:26:41.594Z,15.20
2018-09-17T06:31:44.622Z,15.30
2018-09-17T06:36:47.719Z,15.40
2018-09-17T06:41:50.803Z,15.40
2018-09-17T06:46:53.911Z,15.50
2018-09-17T06:51:57.010Z,15.60
2018-09-17T06:57:00.148Z,15.70
2018-09-17T07:02:03.258Z,15.80
2018-09-17T07:07:06.385Z,15.80
2018-09-17T07:12:09.477Z,15.90
2018-09-17T07:17:12.589Z,16.00
2018-09-17T07:22:15.786Z,16.10
2018-09-17T07:27:18.905Z,16.20
2018-09-17T07:32:22.270Z,16.30
2018-09-17T07:37:25.438Z,16.40
2018-09-17T07:42:28.643Z,16.50
2018-09-17T07:47:31.735Z,16.70
2018-09-17T07:52:36.101Z,16.80
2018-09-17T07:57:39.228Z,17.00
2018-09-17T08:02:42.326Z,17.20
2018-09-17T08:07:45.442Z,17.40
2018-09-17T08:12:49.068Z,17.60
2018-09-17T08:17:52.680Z,17.70
2018-09-17T08:22:55.861Z,17.90
2018-09-17T08:27:58.968Z,18.10
2018-09-17T08:33:02.054Z,18.20
2018-09-17T08:38:05.177Z,18.40
2018-09-17T08:43:08.243Z,18.60
2018-09-17T08:48:11.371Z,18.80
2018-09-17T08:53:14.536Z,19.00
2018-09-17T08:58:23.058Z,19.20
2018-09-17T09:03:29.503Z,19.40
2018-09-17T09:08:32.615Z,19.60
2018-09-17T09:13:41.191Z,19.80
2018-09-17T09:18:44.336Z,20.00
2018-09-17T09:23:47.483Z,20.20
2018-09-17T09:28:50.599Z,20.50
2018-09-17T09:33:53.731Z,20.70
2018-09-17T09:38:56.861Z,20.90
2018-09-17T09:43:59.979Z,21.20
2018-09-17T09:49:03.079Z,21.40
2018-09-17T09:54:06.275Z,21.60
2018-09-17T09:59:09.388Z,21.80
2018-09-17T10:04:18.034Z,22.00
2018-09-17T10:10:26.279Z,22.20
2018-09-17T10:15:39.670Z,22.40
2018-09-17T10:20:42.755Z,22.60
2018-09-17T10:25:45.906Z,22.80
2018-09-17T10:30:49.196Z,23.00
2018-09-17T10:35:52.296Z,23.20
2018-09-17T10:40:55.415Z,23.40
2018-09-17T10:45:58.547Z,23.50
2018-09-17T10:51:01.651Z,23.70
2018-09-17T10:56:04.773Z,23.90
2018-09-17T11:01:07.888Z,24.10
2018-09-17T11:06:11.006Z,24.30
2018-09-17T11:11:14.095Z,24.50
2018-09-17T11:16:17.189Z,24.60
2018-09-17T11:21:20.292Z,24.80
2018-09-17T11:26:23.409Z,24.90
2018-09-17T11:31:26.611Z,25.00
2018-09-17T11:36:29.828Z,25.20
2018-09-17T11:41:32.966Z,25.40
2018-09-17T11:51:45.623Z,25.60
2018-09-17T11:56:48.749Z,25.80
2018-09-17T12:01:57.355Z,25.90
2018-09-17T12:07:05.980Z,26.00
2018-09-17T12:12:09.081Z,26.10
2018-09-17T12:17:12.177Z,26.20
2018-09-17T12:22:15.296Z,26.30
2018-09-17T12:27:18.399Z,26.40
2018-09-17T12:32:21.514Z,26.50
2018-09-17T12:37:24.614Z,26.70
2018-09-17T12:42:27.754Z,26.80
2018-09-17T12:47:30.843Z,26.90
2018-09-17T12:52:33.946Z,26.90
2018-09-17T12:57:37.354Z,27.00
2018-09-17T13:02:40.494Z,27.10
2018-09-17T13:07:43.604Z,27.10
2018-09-17T13:12:46.828Z,27.30
2018-09-17T13:17:49.951Z,27.40
2018-09-17T13:22:53.080Z,27.50
2018-09-17T13:27:56.186Z,27.50
2018-09-17T13:33:00.053Z,27.50
2018-09-17T13:38:03.159Z,27.60
2018-09-17T13:43:06.295Z,27.60
2018-09-17T13:48:09.380Z,27.60
2018-09-17T13:53:12.532Z,27.60
2018-09-17T13:58:15.615Z,27.60
2018-09-17T14:03:18.740Z,27.60
2018-09-17T14:08:21.819Z,27.50
2018-09-17T14:13:31.432Z,27.50
2018-09-17T14:18:34.609Z,27.50
2018-09-17T14:23:37.711Z,27.50
2018-09-17T14:28:40.848Z,27.50
2018-09-17T14:33:43.951Z,27.50
2018-09-17T14:38:47.013Z,27.40
2018-09-17T14:43:50.146Z,27.40
2018-09-17T14:48:53.277Z,27.30
2018-09-17T14:53:56.477Z,27.30
2018-09-17T14:58:59.493Z,27.30
2018-09-17T15:04:02.641Z,27.20
2018-09-17T15:09:07.454Z,27.20
2018-09-17T15:14:11.424Z,27.10
2018-09-17T15:19:14.432Z,27.10
2018-09-17T15:24:17.536Z,27.10
2018-09-17T15:29:20.643Z,27.00
2018-09-17T15:34:23.909Z,27.00
2018-09-17T15:39:26.940Z,27.00
2018-09-17T15:44:30.123Z,26.90
2018-09-17T15:49:33.155Z,26.90
2018-09-17T15:54:36.288Z,26.80
2018-09-17T15:59:39.410Z,26.80
2018-09-17T16:04:42.520Z,26.70
2018-09-17T16:09:45.640Z,26.60
2018-09-17T16:14:48.757Z,26.50
2018-09-17T16:19:51.935Z,26.50
2018-09-17T16:24:54.956Z,26.40
2018-09-17T16:29:58.044Z,26.40
2018-09-17T16:35:01.131Z,26.30
2018-09-17T16:40:04.310Z,26.20
2018-09-17T16:45:07.419Z,26.20
2018-09-17T16:50:10.648Z,26.10
2018-09-17T16:55:13.775Z,26.00
2018-09-17T17:00:16.873Z,25.90
2018-09-17T17:05:26.514Z,25.80
2018-09-17T17:10:29.647Z,25.70
2018-09-17T17:15:32.771Z,25.60
2018-09-17T17:20:35.873Z,25.50
2018-09-17T17:25:39.419Z,25.40
2018-09-17T17:30:42.538Z,25.20
2018-09-17T17:35:46.119Z,25.10
2018-09-17T17:40:49.261Z,25.00
2018-09-17T17:45:52.369Z,24.80
2018-09-17T17:50:55.502Z,24.70
2018-09-17T17:55:58.617Z,24.50
2018-09-17T18:01:02.150Z,24.40
2018-09-17T18:06:05.170Z,24.30
2018-09-17T18:11:08.275Z,24.20
2018-09-17T18:16:11.391Z,24.00
2018-09-17T18:21:14.633Z,23.90
2018-09-17T18:26:17.747Z,23.80
2018-09-17T18:31:20.874Z,23.60
2018-09-17T18:36:24.036Z,23.50
2018-09-17T18:41:27.086Z,23.30
2018-09-17T18:46:30.179Z,23.20
2018-09-17T18:51:33.331Z,23.00
2018-09-17T18:56:36.531Z,22.90
2018-09-17T19:01:39.604Z,22.80
2018-09-17T19:06:42.721Z,22.60
2018-09-17T19:11:45.823Z,22.50
2018-09-17T19:16:54.242Z,22.40
2018-09-17T19:22:03.042Z,22.30
2018-09-17T19:27:05.955Z,22.20
2018-09-17T19:32:09.079Z,22.00
2018-09-17T19:37:17.680Z,21.90
2018-09-17T19:42:20.977Z,21.80
2018-09-17T19:47:23.963Z,21.60
2018-09-17T19:52:27.068Z,21.50
2018-09-17T19:57:35.752Z,21.50
2018-09-17T20:02:39.799Z,21.40
2018-09-17T20:07:42.914Z,21.30
2018-09-17T20:12:46.041Z,21.20
2018-09-17T20:17:55.722Z,21.10
2018-09-17T20:22:58.847Z,21.00
2018-09-17T20:28:01.923Z,20.90
2018-09-17T20:33:05.107Z,20.80
2018-09-17T20:38:08.212Z,20.70
2018-09-17T20:43:11.343Z,20.60
2018-09-17T20:48:14.526Z,20.50
2018-09-17T20:53:17.610Z,20.50
2018-09-17T20:58:20.758Z,20.40
2018-09-17T21:03:23.922Z,20.30
2018-09-17T21:08:27.000Z,20.30
2018-09-17T21:13:30.195Z,20.20
2018-09-17T21:18:33.241Z,20.20
2018-09-17T21:23:36.329Z,20.20
2018-09-17T21:28:39.863Z,20.10
2018-09-17T21:33:42.958Z,20.10
2018-09-17T21:38:46.047Z,20.00
2018-09-17T21:43:49.164Z,20.00
2018-09-17T21:48:52.287Z,20.00
2018-09-17T21:53:55.404Z,19.90
2018-09-17T21:58:58.527Z,19.90
2018-09-17T22:04:01.670Z,19.80
2018-09-17T22:09:06.668Z,19.80
2018-09-17T22:14:09.771Z,19.70
2018-09-17T22:19:12.868Z,19.70
2018-09-17T22:24:15.992Z,19.60
2018-09-17T22:29:19.076Z,19.60
2018-09-17T22:34:22.177Z,19.50
2018-09-17T22:39:25.331Z,19.50
2018-09-17T22:44:28.502Z,19.50
2018-09-17T22:49:31.596Z,19.40
2018-09-17T22:54:34.699Z,19.40
2018-09-17T22:59:37.815Z,19.30
2018-09-17T23:04:40.899Z,19.30
2018-09-17T23:09:44.024Z,19.20
2018-09-17T23:14:47.148Z,19.20
2018-09-17T23:19:50.252Z,19.20
2018-09-17T23:24:53.362Z,19.10
2018-09-17T23:29:56.493Z,19.10
2018-09-17T23:34:59.586Z,19.00
2018-09-17T23:40:09.259Z,19.00
2018-09-17T23:45:12.363Z,19.00
2018-09-17T23:50:15.447Z,19.00
2018-09-17T23:55:18.555Z,18.90
